createdAt,value
2018-09-24T00:00:03.954Z,11.55
2018-09-24T00:02:37.546Z,11.55
2018-09-24T00:05:08.586Z,11.54
2018-09-24T00:07:39.272Z,11.55
2018-09-24T00:10:08.764Z,11.54
2018-09-24T00:12:38.586Z,11.54
2018-09-24T00:15:08.847Z,11.61
2018-09-24T00:17:38.733Z,11.54
2018-09-24T00:20:09.602Z,11.49
2018-09-24T00:22:39.888Z,11.49
2018-09-24T00:25:13.306Z,11.45
2018-09-24T00:27:43.252Z,11.49
2018-09-24T00:30:12.528Z,11.55
2018-09-24T00:32:45.050Z,11.54
2018-09-24T00:35:18.061Z,11.47
2018-09-24T00:37:50.912Z,11.42
2018-09-24T00:40:21.571Z,11.35
2018-09-24T00:42:50.706Z,11.33
2018-09-24T00:45:23.278Z,11.31
2018-09-24T00:47:55.526Z,11.22
2018-09-24T00:50:28.412Z,11.19
2018-09-24T00:52:57.706Z,11.14
2018-09-24T00:55:31.588Z,11.13
2018-09-24T00:58:01.517Z,11.08
2018-09-24T01:00:33.720Z,11.09
2018-09-24T01:03:05.478Z,11.15
2018-09-24T01:05:37.442Z,11.18
2018-09-24T01:08:09.278Z,11.17
2018-09-24T01:10:40.620Z,11.17
2018-09-24T01:13:11.174Z,11.10
2018-09-24T01:15:42.358Z,11.08
2018-09-24T01:18:14.835Z,11.05
2018-09-24T01:20:46.775Z,11.14
2018-09-24T01:23:16.625Z,11.15
2018-09-24T01:25:48.061Z,11.15
2018-09-24T01:28:19.056Z,11.10
2018-09-24T01:30:49.553Z,11.01
2018-09-24T01:33:19.031Z,10.91
2018-09-24T01:35:49.412Z,10.72
2018-09-24T01:38:21.822Z,10.55
2018-09-24T01:40:54.212Z,10.49
2018-09-24T01:43:24.074Z,10.47
2018-09-24T01:45:58.029Z,10.43
2018-09-24T01:48:29.874Z,10.37
2018-09-24T01:51:01.704Z,10.32
2018-09-24T01:53:33.578Z,10.29
2018-09-24T01:56:02.862Z,10.29
2018-09-24T01:58:36.541Z,10.31
2018-09-24T02:01:07.205Z,10.31
2018-09-24T02:03:37.356Z,10.33
2018-09-24T02:06:07.773Z,10.29
2018-09-24T02:08:45.020Z,10.31
2018-09-24T02:11:16.180Z,10.35
2018-09-24T02:13:52.838Z,10.37
2018-09-24T02:16:24.996Z,10.23
2018-09-24T02:19:01.880Z,10.20
2018-09-24T02:21:31.488Z,10.20
2018-09-24T02:24:04.483Z,10.14
2018-09-24T02:26:33.670Z,10.04
2018-09-24T02:29:02.985Z,9.89
2018-09-24T02:31:39.708Z,9.71
2018-09-24T02:34:12.643Z,9.62
2018-09-24T02:36:44.621Z,9.54
2018-09-24T02:39:14.751Z,9.50
2018-09-24T02:41:48.054Z,9.43
2018-09-24T02:44:17.828Z,9.41
2018-09-24T02:46:48.657Z,9.44
2018-09-24T02:49:17.931Z,9.33
2018-09-24T02:51:48.233Z,9.35
2018-09-24T02:54:18.595Z,9.36
2018-09-24T02:56:52.071Z,9.35
2018-09-24T02:59:23.511Z,9.33
2018-09-24T03:01:58.529Z,9.31
2018-09-24T03:04:32.194Z,9.30
2018-09-24T03:07:02.036Z,9.26
2018-09-24T03:09:31.369Z,9.27
2018-09-24T03:12:03.687Z,9.24
2018-09-24T03:14:36.417Z,9.24
2018-09-24T03:17:06.348Z,9.26
2018-09-24T03:19:37.323Z,9.28
2018-09-24T03:22:06.435Z,9.32
2018-09-24T03:24:36.320Z,9.33
2018-09-24T03:27:06.693Z,9.31
2018-09-24T03:29:38.063Z,9.32
2018-09-24T03:32:10.830Z,9.38
2018-09-24T03:34:44.937Z,9.37
2018-09-24T03:37:14.471Z,9.39
2018-09-24T03:39:44.316Z,9.43
2018-09-24T03:42:14.064Z,9.41
2018-09-24T03:44:43.259Z,9.42
2018-09-24T03:47:14.558Z,9.39
2018-09-24T03:49:45.434Z,9.36
2018-09-24T03:52:20.191Z,9.35
2018-09-24T03:54:49.749Z,9.29
2018-09-24T03:57:20.346Z,9.22
2018-09-24T03:59:50.334Z,9.16
2018-09-24T04:02:21.931Z,9.07
2018-09-24T04:05:01.911Z,9.06
2018-09-24T04:07:40.636Z,9.06
2018-09-24T04:10:18.298Z,9.07
2018-09-24T04:12:54.274Z,9.01
2018-09-24T04:15:29.571Z,9.02
2018-09-24T04:18:09.339Z,9.03
2018-09-24T04:20:46.220Z,9.05
2018-09-24T04:23:21.081Z,9.01
2018-09-24T04:25:59.433Z,8.98
2018-09-24T04:28:33.955Z,8.99
2018-09-24T04:31:08.259Z,9.00
2018-09-24T04:33:46.097Z,8.97
2018-09-24T04:36:25.264Z,8.97
2018-09-24T04:39:00.059Z,8.87
2018-09-24T04:41:37.954Z,8.83
2018-09-24T04:44:13.389Z,8.85
2018-09-24T04:46:47.908Z,8.83
2018-09-24T04:49:26.895Z,8.90
2018-09-24T04:52:02.500Z,9.01
2018-09-24T04:54:40.443Z,9.06
2018-09-24T04:57:15.148Z,9.09
2018-09-24T04:59:50.467Z,9.13
2018-09-24T05:02:28.948Z,9.11
2018-09-24T05:05:03.923Z,9.11
2018-09-24T05:07:41.151Z,9.09
2018-09-24T05:10:16.966Z,9.09
2018-09-24T05:12:51.658Z,9.07
2018-09-24T05:15:29.254Z,9.10
2018-09-24T05:18:07.732Z,9.15
2018-09-24T05:20:43.155Z,9.19
2018-09-24T05:23:17.616Z,9.20
2018-09-24T05:25:55.647Z,9.23
2018-09-24T05:28:32.596Z,9.22
2018-09-24T05:31:07.080Z,9.27
2018-09-24T05:33:42.446Z,9.27
2018-09-24T05:36:19.608Z,9.28
2018-09-24T05:38:55.331Z,9.23
2018-09-24T05:41:34.034Z,9.24
2018-09-24T05:44:10.826Z,9.24
2018-09-24T05:46:49.398Z,9.20
2018-09-24T05:49:26.258Z,9.24
2018-09-24T05:52:03.005Z,9.29
2018-09-24T05:54:39.789Z,9.35
2018-09-24T05:57:15.401Z,9.39
2018-09-24T05:59:50.892Z,9.40
2018-09-24T06:02:26.466Z,9.41
2018-09-24T06:05:03.994Z,9.41
2018-09-24T06:07:38.377Z,9.46
2018-09-24T06:10:15.180Z,9.46
2018-09-24T06:12:49.620Z,9.36
2018-09-24T06:15:30.649Z,9.43
2018-09-24T06:18:10.703Z,9.39
2018-09-24T06:20:47.416Z,9.48
2018-09-24T06:23:23.998Z,9.54
2018-09-24T06:26:04.501Z,9.55
2018-09-24T06:28:40.932Z,9.56
2018-09-24T06:31:16.366Z,9.57
2018-09-24T06:33:55.954Z,9.56
2018-09-24T06:36:36.806Z,9.55
2018-09-24T06:39:14.828Z,9.52
2018-09-24T06:41:52.594Z,9.56
2018-09-24T06:44:32.486Z,9.58
2018-09-24T06:47:09.129Z,9.65
2018-09-24T06:49:45.668Z,9.65
2018-09-24T06:52:19.925Z,9.63
2018-09-24T06:54:58.650Z,9.61
2018-09-24T06:57:34.621Z,9.57
2018-09-24T07:00:10.253Z,9.60
2018-09-24T07:02:47.627Z,9.62
2018-09-24T07:05:22.171Z,9.79
2018-09-24T07:07:58.088Z,9.87
2018-09-24T07:10:35.798Z,9.89
2018-09-24T07:13:10.917Z,9.90
2018-09-24T07:15:47.509Z,9.88
2018-09-24T07:18:23.159Z,9.86
2018-09-24T07:21:03.329Z,9.92
2018-09-24T07:23:39.250Z,9.99
2018-09-24T07:26:14.001Z,10.03
2018-09-24T07:28:50.568Z,9.96
2018-09-24T07:31:30.316Z,10.04
2018-09-24T07:34:06.111Z,10.09
2018-09-24T07:36:44.143Z,10.23
2018-09-24T07:39:21.518Z,10.41
2018-09-24T07:42:00.096Z,10.42
2018-09-24T07:44:34.387Z,10.46
2018-09-24T07:47:12.663Z,10.52
2018-09-24T07:49:48.295Z,10.57
2018-09-24T07:52:25.667Z,10.58
2018-09-24T07:55:01.369Z,10.66
2018-09-24T07:57:37.289Z,10.76
2018-09-24T08:00:16.180Z,10.64
2018-09-24T08:02:52.403Z,10.63
2018-09-24T08:05:29.218Z,10.66
2018-09-24T08:08:06.123Z,10.73
2018-09-24T08:10:42.047Z,10.76
2018-09-24T08:13:21.136Z,10.76
2018-09-24T08:15:55.519Z,11.08
2018-09-24T08:18:32.845Z,11.30
2018-09-24T08:21:08.386Z,11.55
2018-09-24T08:23:44.288Z,11.58
2018-09-24T08:26:21.411Z,11.46
2018-09-24T08:28:59.002Z,11.32
2018-09-24T08:31:35.862Z,11.36
2018-09-24T08:34:11.383Z,11.47
2018-09-24T08:36:47.027Z,11.63
2018-09-24T08:39:23.911Z,11.83
2018-09-24T08:41:58.744Z,11.89
2018-09-24T08:44:37.254Z,11.99
2018-09-24T08:47:15.451Z,11.99
2018-09-24T08:49:54.095Z,11.99
2018-09-24T08:52:31.178Z,12.07
2018-09-24T08:55:05.509Z,12.21
2018-09-24T08:57:46.456Z,12.27
2018-09-24T09:00:21.661Z,12.21
2018-09-24T09:02:59.746Z,12.17
2018-09-24T09:05:36.174Z,12.15
2018-09-24T09:08:13.570Z,12.14
2018-09-24T09:10:47.774Z,12.13
2018-09-24T09:13:23.832Z,12.05
2018-09-24T09:16:04.311Z,11.96
2018-09-24T09:18:39.967Z,11.82
2018-09-24T09:21:14.936Z,11.83
2018-09-24T09:23:49.948Z,11.94
2018-09-24T09:26:29.153Z,12.05
2018-09-24T09:29:06.695Z,12.20
2018-09-24T09:31:41.539Z,12.40
2018-09-24T09:34:18.060Z,12.67
2018-09-24T09:36:52.842Z,12.68
2018-09-24T09:39:29.411Z,12.53
2018-09-24T09:42:07.098Z,12.47
2018-09-24T09:44:43.834Z,12.60
2018-09-24T09:47:19.955Z,12.81
2018-09-24T09:49:56.578Z,12.88
2018-09-24T09:52:31.666Z,12.97
2018-09-24T09:55:07.207Z,13.06
2018-09-24T09:57:43.239Z,13.18
2018-09-24T10:00:20.667Z,13.24
2018-09-24T10:02:59.489Z,13.28
2018-09-24T10:05:36.095Z,13.25
2018-09-24T10:08:15.871Z,13.08
2018-09-24T10:10:53.880Z,12.96
2018-09-24T10:13:29.409Z,13.11
2018-09-24T10:16:06.099Z,13.18
2018-09-24T10:18:41.987Z,13.13
2018-09-24T10:21:17.519Z,13.21
2018-09-24T10:23:52.187Z,13.30
2018-09-24T10:26:31.061Z,13.37
2018-09-24T10:29:08.506Z,13.52
2018-09-24T10:31:45.942Z,13.45
2018-09-24T10:34:22.919Z,13.39
2018-09-24T10:36:59.479Z,13.32
2018-09-24T10:42:36.923Z,12.77
2018-09-24T10:45:11.915Z,12.74
2018-09-24T10:47:46.603Z,12.75
2018-09-24T10:50:20.993Z,12.71
2018-09-24T10:52:55.403Z,12.68
2018-09-24T10:55:30.400Z,12.86
2018-09-24T10:58:04.856Z,12.91
2018-09-24T11:00:40.792Z,12.89
2018-09-24T11:03:15.714Z,13.13
2018-09-24T11:05:50.169Z,13.34
2018-09-24T11:08:25.110Z,13.29
2018-09-24T11:10:59.797Z,13.27
2018-09-24T11:13:34.356Z,13.19
2018-09-24T11:16:09.219Z,13.05
2018-09-24T11:18:43.613Z,13.12
2018-09-24T11:21:18.439Z,13.15
2018-09-24T11:23:53.036Z,13.17
2018-09-24T11:29:02.995Z,13.31
2018-09-24T11:31:37.762Z,13.33
2018-09-24T11:34:12.958Z,13.36
2018-09-24T11:36:47.756Z,13.28
2018-09-24T11:39:22.203Z,13.12
2018-09-24T11:41:56.903Z,12.98
2018-09-24T11:44:31.687Z,12.97
2018-09-24T11:47:06.597Z,13.15
2018-09-24T11:49:41.017Z,13.25
2018-09-24T11:52:15.859Z,13.25
2018-09-24T11:54:51.330Z,13.48
2018-09-24T11:57:25.982Z,13.76
2018-09-24T12:00:00.684Z,13.87
2018-09-24T12:02:35.404Z,13.88
2018-09-24T12:05:09.988Z,13.67
2018-09-24T12:07:44.777Z,13.55
2018-09-24T12:10:20.148Z,13.37
2018-09-24T12:12:54.727Z,13.10
2018-09-24T12:15:29.671Z,12.93
2018-09-24T12:18:04.445Z,12.73
2018-09-24T12:20:39.175Z,12.67
2018-09-24T12:23:13.925Z,12.72
2018-09-24T12:25:48.750Z,13.05
2018-09-24T12:28:23.549Z,13.52
2018-09-24T12:30:58.376Z,13.81
2018-09-24T12:33:33.404Z,13.95
2018-09-24T12:36:07.906Z,13.86
2018-09-24T12:41:29.584Z,13.61
2018-09-24T12:44:04.972Z,13.39
2018-09-24T12:46:39.681Z,13.30
2018-09-24T12:49:14.208Z,13.21
2018-09-24T12:51:49.088Z,13.22
2018-09-24T12:54:24.438Z,13.43
2018-09-24T12:56:59.312Z,13.66
2018-09-24T12:59:34.178Z,13.87
2018-09-24T13:02:09.386Z,14.01
2018-09-24T13:04:44.379Z,13.95
2018-09-24T13:07:19.098Z,13.85
2018-09-24T13:09:53.543Z,13.70
2018-09-24T13:12:28.346Z,13.62
2018-09-24T13:15:04.502Z,13.61
2018-09-24T13:17:40.372Z,13.63
2018-09-24T13:20:15.713Z,13.74
2018-09-24T13:22:50.549Z,13.79
2018-09-24T13:25:26.589Z,14.13
2018-09-24T13:28:04.702Z,14.41
2018-09-24T13:30:39.205Z,14.63
2018-09-24T13:33:13.783Z,14.78
2018-09-24T13:35:49.612Z,14.60
2018-09-24T13:38:24.914Z,14.31
2018-09-24T13:41:00.888Z,13.97
2018-09-24T13:43:36.054Z,13.71
2018-09-24T13:46:10.874Z,13.52
2018-09-24T13:48:46.178Z,13.66
2018-09-24T13:51:22.572Z,13.70
2018-09-24T13:53:58.930Z,13.65
2018-09-24T13:56:33.731Z,13.58
2018-09-24T13:59:08.729Z,13.52
2018-09-24T14:01:44.289Z,13.34
2018-09-24T14:04:20.558Z,13.25
2018-09-24T14:06:55.690Z,13.15
2018-09-24T14:09:30.387Z,13.05
2018-09-24T14:12:05.280Z,12.98
2018-09-24T14:27:37.746Z,12.99
2018-09-24T14:30:12.397Z,13.32
2018-09-24T14:32:47.038Z,13.31
2018-09-24T14:35:21.831Z,13.61
2018-09-24T14:37:56.513Z,14.14
2018-09-24T14:40:32.242Z,14.73
2018-09-24T14:43:06.872Z,15.27
2018-09-24T14:45:41.473Z,15.77
2018-09-24T14:48:16.536Z,15.92
2018-09-24T14:50:50.967Z,16.14
2018-09-24T14:53:25.928Z,16.37
2018-09-24T14:56:07.511Z,16.56
2018-09-24T14:58:42.332Z,16.51
2018-09-24T15:01:17.269Z,16.55
2018-09-24T15:03:52.338Z,16.56
2018-09-24T15:06:27.254Z,16.78
2018-09-24T15:09:02.551Z,16.80
2018-09-24T15:11:37.639Z,16.69
2018-09-24T15:14:12.948Z,16.45
2018-09-24T15:16:47.433Z,16.41
2018-09-24T15:19:23.531Z,16.05
2018-09-24T15:21:58.437Z,15.65
2018-09-24T15:24:33.943Z,15.32
2018-09-24T15:27:09.499Z,15.06
2018-09-24T15:29:44.261Z,14.78
2018-09-24T15:32:18.850Z,14.58
2018-09-24T15:34:54.555Z,14.39
2018-09-24T15:37:30.097Z,14.18
2018-09-24T15:40:05.016Z,14.04
2018-09-24T15:42:40.475Z,13.90
2018-09-24T15:45:15.605Z,13.85
2018-09-24T15:47:51.224Z,13.82
2018-09-24T15:50:26.099Z,13.85
2018-09-24T15:53:01.575Z,13.88
2018-09-24T15:55:36.609Z,13.90
2018-09-24T15:58:13.152Z,13.86
2018-09-24T16:00:48.029Z,13.83
2018-09-24T16:03:23.480Z,13.72
2018-09-24T16:05:58.457Z,13.62
2018-09-24T16:08:33.721Z,13.56
2018-09-24T16:11:10.364Z,13.48
2018-09-24T16:13:45.183Z,13.43
2018-09-24T16:16:20.504Z,13.40
2018-09-24T16:18:55.230Z,13.37
2018-09-24T16:21:30.243Z,13.35
2018-09-24T16:24:06.393Z,13.30
2018-09-24T16:26:41.909Z,13.25
2018-09-24T16:29:18.445Z,13.17
2018-09-24T16:31:54.058Z,13.04
2018-09-24T16:34:29.098Z,12.96
2018-09-24T16:37:04.740Z,12.88
2018-09-24T16:39:40.184Z,12.80
2018-09-24T16:42:15.101Z,12.71
2018-09-24T16:44:51.658Z,12.67
2018-09-24T16:47:26.158Z,12.58
2018-09-24T16:50:01.876Z,12.50
2018-09-24T16:52:36.434Z,12.43
2018-09-24T16:55:10.903Z,12.35
2018-09-24T16:57:46.371Z,12.27
2018-09-24T17:00:20.952Z,12.20
2018-09-24T17:02:56.976Z,12.14
2018-09-24T17:05:31.428Z,12.09
2018-09-24T17:08:07.274Z,12.04
2018-09-24T17:10:41.645Z,11.96
2018-09-24T17:13:16.290Z,11.90
2018-09-24T17:15:50.944Z,11.84
2018-09-24T17:18:25.461Z,11.76
2018-09-24T17:21:01.222Z,11.70
2018-09-24T17:23:37.255Z,11.65
2018-09-24T17:26:11.765Z,11.60
2018-09-24T17:28:47.158Z,11.56
2018-09-24T17:31:21.986Z,11.54
2018-09-24T17:33:57.986Z,11.50
2018-09-24T17:36:33.305Z,11.48
2018-09-24T17:39:09.259Z,11.45
2018-09-24T17:41:44.086Z,11.37
2018-09-24T17:44:18.718Z,11.31
2018-09-24T17:46:55.106Z,11.28
2018-09-24T17:49:29.718Z,11.21
2018-09-24T17:52:06.463Z,11.15
2018-09-24T17:54:41.581Z,11.11
2018-09-24T17:57:16.285Z,11.06
2018-09-24T17:59:51.011Z,11.03
2018-09-24T18:02:26.214Z,10.98
2018-09-24T18:05:00.966Z,10.95
2018-09-24T18:07:35.866Z,10.87
2018-09-24T18:10:10.899Z,10.79
2018-09-24T18:12:46.097Z,10.72
2018-09-24T18:15:21.073Z,10.65
2018-09-24T18:17:57.001Z,10.58
2018-09-24T18:20:33.691Z,10.54
2018-09-24T18:23:09.581Z,10.47
2018-09-24T18:25:45.083Z,10.40
2018-09-24T18:28:19.910Z,10.33
2018-09-24T18:30:55.943Z,10.32
2018-09-24T18:33:32.890Z,10.29
2018-09-24T18:36:07.800Z,10.24
2018-09-24T18:38:42.674Z,10.12
2018-09-24T18:41:18.210Z,10.05
2018-09-24T18:43:54.999Z,9.98
2018-09-24T18:46:30.063Z,9.92
2018-09-24T18:49:05.385Z,9.87
2018-09-24T18:51:41.172Z,9.79
2018-09-24T18:54:19.776Z,9.70
2018-09-24T18:56:54.898Z,9.70
2018-09-24T18:59:30.029Z,9.68
2018-09-24T19:02:05.605Z,9.65
2018-09-24T19:04:40.813Z,9.60
2018-09-24T19:07:21.133Z,9.57
2018-09-24T19:09:55.782Z,9.55
2018-09-24T19:12:31.693Z,9.52
2018-09-24T19:15:06.800Z,9.49
2018-09-24T19:17:41.785Z,9.46
2018-09-24T19:20:16.785Z,9.45
2018-09-24T19:22:51.970Z,9.43
2018-09-24T19:25:27.220Z,9.41
2018-09-24T19:28:02.992Z,9.38
2018-09-24T19:30:39.963Z,9.37
2018-09-24T19:33:17.896Z,9.35
2018-09-24T19:35:55.533Z,9.34
2018-09-24T19:38:34.239Z,9.34
2018-09-24T19:41:09.782Z,9.33
2018-09-24T19:43:46.773Z,9.28
2018-09-24T19:46:22.311Z,9.24
2018-09-24T19:48:58.906Z,9.20
2018-09-24T19:51:34.889Z,9.14
2018-09-24T19:54:10.542Z,9.10
2018-09-24T19:56:45.776Z,9.05
2018-09-24T19:59:20.999Z,9.01
2018-09-24T20:01:55.885Z,8.99
2018-09-24T20:04:31.101Z,8.96
2018-09-24T20:07:06.588Z,8.95
2018-09-24T20:09:42.312Z,8.93
2018-09-24T20:12:16.964Z,8.90
2018-09-24T20:14:51.744Z,8.84
2018-09-24T20:17:27.187Z,8.77
2018-09-24T20:20:01.829Z,8.74
2018-09-24T20:22:37.835Z,8.70
2018-09-24T20:25:13.761Z,8.64
2018-09-24T20:27:48.404Z,8.62
2018-09-24T20:30:23.405Z,8.58
2018-09-24T20:33:00.382Z,8.55
2018-09-24T20:35:35.121Z,8.56
2018-09-24T20:38:11.413Z,8.52
2018-09-24T20:40:47.021Z,8.46
2018-09-24T20:43:21.535Z,8.43
2018-09-24T20:45:58.984Z,8.42
2018-09-24T20:48:34.177Z,8.41
2018-09-24T20:51:08.812Z,8.37
2018-09-24T20:53:44.678Z,8.36
2018-09-24T20:56:19.290Z,8.36
2018-09-24T20:58:54.704Z,8.35
2018-09-24T21:01:29.908Z,8.35
2018-09-24T21:04:05.585Z,8.33
2018-09-24T21:06:42.105Z,8.31
2018-09-24T21:09:16.655Z,8.30
2018-09-24T21:11:51.847Z,8.28
2018-09-24T21:14:27.970Z,8.29
2018-09-24T21:17:02.815Z,8.26
2018-09-24T21:19:38.170Z,8.24
2018-09-24T21:22:13.009Z,8.25
2018-09-24T21:24:49.041Z,8.26
2018-09-24T21:27:25.226Z,8.28
2018-09-24T21:30:00.294Z,8.27
2018-09-24T21:32:35.642Z,8.26
2018-09-24T21:35:10.319Z,8.23
2018-09-24T21:37:45.849Z,8.22
2018-09-24T21:40:21.351Z,8.19
2018-09-24T21:42:57.534Z,8.17
2018-09-24T21:45:33.045Z,8.14
2018-09-24T21:48:07.887Z,8.14
2018-09-24T21:50:42.509Z,8.16
2018-09-24T21:53:17.493Z,8.14
2018-09-24T21:55:52.646Z,8.13
2018-09-24T21:58:28.981Z,8.11
2018-09-24T22:01:04.100Z,8.12
2018-09-24T22:03:39.317Z,8.14
2018-09-24T22:06:14.165Z,8.17
2018-09-24T22:08:48.949Z,8.17
2018-09-24T22:11:26.646Z,8.21
2018-09-24T22:14:02.595Z,8.22
2018-09-24T22:16:37.595Z,8.22
2018-09-24T22:19:12.200Z,8.25
2018-09-24T22:21:48.259Z,8.30
2018-09-24T22:24:22.828Z,8.32
2018-09-24T22:27:00.515Z,8.34
2018-09-24T22:29:35.526Z,8.35
2018-09-24T22:32:11.099Z,8.36
2018-09-24T22:34:45.695Z,8.35
2018-09-24T22:37:21.543Z,8.36
2018-09-24T22:39:58.205Z,8.40
2018-09-24T22:42:33.057Z,8.44
2018-09-24T22:45:08.623Z,8.45
2018-09-24T22:47:43.233Z,8.45
2018-09-24T22:50:19.186Z,8.47
2018-09-24T22:52:55.047Z,8.48
2018-09-24T22:55:29.486Z,8.47
2018-09-24T22:58:04.411Z,8.45
2018-09-24T23:00:38.915Z,8.43
2018-09-24T23:03:13.691Z,8.38
2018-09-24T23:05:48.223Z,8.39
2018-09-24T23:08:22.874Z,8.40
2018-09-24T23:10:57.364Z,8.42
2018-09-24T23:13:31.925Z,8.42
2018-09-24T23:16:06.325Z,8.37
2018-09-24T23:18:40.796Z,8.37
2018-09-24T23:21:15.613Z,8.35
2018-09-24T23:23:51.132Z,8.33
2018-09-24T23:26:25.989Z,8.31
2018-09-24T23:29:01.400Z,8.28
2018-09-24T23:31:35.973Z,8.26
2018-09-24T23:34:10.855Z,8.22
2018-09-24T23:36:45.987Z,8.19
2018-09-24T23:39:22.329Z,8.17
2018-09-24T23:42:00.300Z,8.13
2018-09-24T23:44:35.279Z,8.08
2018-09-24T23:47:12.682Z,8.08
2018-09-24T23:49:47.336Z,8.06
2018-09-24T23:52:22.309Z,8.02
2018-09-24T23:54:57.597Z,7.96
2018-09-24T23:57:32.300Z,7.97
